Time;durP1;ratioP1;P1;durP2;ratioP2;P2;SDS_P1;SDS_P2;PMS_P1;PMS_P2;Temp;Humidity;BMP_temperature;BMP_pressure;BME280_temperature;BME280_humidity;BME280_pressure;Samples;Min_cycle;Max_cycle;Signal;HPM_P1;HPM_P2
2023/01/17 00:02:05;;;;;;;2.28;1.27;;;3.60;99.90;;;;;;5003617;28;20041;-52
2023/01/17 00:10:07;;;;;;;2.00;0.95;;;3.70;99.90;;;;;;5002973;28;20462;-50
2023/01/17 00:12:34;;;;;;;2.95;1.10;;;3.70;99.90;;;;;;4998177;28;20121;-50
2023/01/17 00:15:00;;;;;;;2.90;0.90;;;3.70;99.90;;;;;;5001459;28;20042;-50
2023/01/17 00:17:28;;;;;;;3.53;1.10;;;3.70;99.90;;;;;;5003660;28;20043;-50
2023/01/17 01:35:03;;;;;;;3.28;0.47;;;3.30;99.90;;;;;;4999418;28;20086;-51
2023/01/17 01:37:30;;;;;;;5.53;0.60;;;3.20;99.90;;;;;;5000508;28;20084;-50
2023/01/17 01:39:56;;;;;;;1.30;0.40;;;3.20;99.90;;;;;;5000094;28;21536;-50
2023/01/17 01:42:22;;;;;;;4.18;0.43;;;3.20;99.90;;;;;;4998394;28;20042;-49
2023/01/17 01:44:50;;;;;;;2.75;0.40;;;3.10;99.90;;;;;;5005068;28;20061;-54
2023/01/17 01:47:34;;;;;;;2.63;0.60;;;3.10;99.90;;;;;;5007020;28;20466;-51
2023/01/17 01:50:03;;;;;;;3.53;0.60;;;3.10;99.90;;;;;;5002423;28;20052;-51
2023/01/17 01:52:32;;;;;;;3.50;0.47;;;3.00;99.90;;;;;;5005518;28;20068;-52
2023/01/17 01:55:06;;;;;;;7.13;0.90;;;3.00;99.90;;;;;;5003673;28;20056;-51
2023/01/17 01:57:38;;;;;;;3.10;0.68;;;3.00;99.90;;;;;;5003367;28;20047;-53
2023/01/17 02:00:13;;;;;;;1.67;0.50;;;3.00;99.90;;;;;;5006444;28;20053;-52
2023/01/17 02:02:41;;;;;;;3.88;0.70;;;3.00;99.90;;;;;;5003923;28;20034;-52
2023/01/17 02:05:08;;;;;;;;;;;3.00;99.90;;;;;;5002818;28;20160;-51
2023/01/17 02:07:40;;;;;;;3.58;0.73;;;3.00;99.90;;;;;;4997000;28;19928;-54
2023/01/17 02:10:06;;;;;;;3.95;0.55;;;3.00;99.90;;;;;;5012218;28;20046;-51
2023/01/17 02:12:32;;;;;;;3.47;0.85;;;3.00;99.90;;;;;;5007165;28;20046;-54
2023/01/17 02:14:58;;;;;;;3.03;0.50;;;3.00;99.90;;;;;;5008128;28;20124;-50
2023/01/17 02:17:42;;;;;;;2.05;0.52;;;3.00;99.90;;;;;;5012261;28;20037;-52
2023/01/17 02:20:25;;;;;;;4.03;0.43;;;3.00;99.90;;;;;;5003238;28;20076;-52
2023/01/17 02:23:12;;;;;;;0.38;0.30;;;2.90;99.90;;;;;;5006442;28;20049;-52
2023/01/17 02:26:11;;;;;;;2.80;0.30;;;2.90;99.90;;;;;;5010356;28;20049;-52
2023/01/17 02:29:24;;;;;;;1.67;0.28;;;2.80;99.90;;;;;;5006522;28;20558;-51
2023/01/17 02:32:03;;;;;;;0.80;0.20;;;2.70;99.90;;;;;;4976529;28;20532;-53
2023/01/17 02:34:38;;;;;;;3.03;0.30;;;2.70;99.90;;;;;;5004559;28;20050;-53
2023/01/17 02:37:12;;;;;;;0.55;0.25;;;2.70;99.90;;;;;;4999172;28;20053;-52
2023/01/17 02:40:23;;;;;;;2.90;0.47;;;2.60;99.90;;;;;;5005881;28;20092;-53
2023/01/17 02:42:58;;;;;;;3.30;0.47;;;2.60;99.90;;;;;;4986187;28;20057;-50
2023/01/17 02:45:24;;;;;;;2.63;0.40;;;2.60;99.90;;;;;;5002043;28;20092;-51
2023/01/17 02:47:49;;;;;;;2.70;0.50;;;2.60;99.90;;;;;;5004225;28;20077;-51
2023/01/17 02:50:19;;;;;;;3.17;0.60;;;2.60;99.90;;;;;;5005442;28;20034;-50
2023/01/17 02:52:44;;;;;;;1.67;0.43;;;2.50;99.90;;;;;;5005464;28;20061;-50
2023/01/17 02:55:25;;;;;;;1.75;0.40;;;2.60;99.90;;;;;;5005626;28;20050;-50
2023/01/17 02:58:04;;;;;;;5.15;1.13;;;2.50;99.90;;;;;;5004524;28;20717;-52
2023/01/17 03:00:45;;;;;;;2.90;0.40;;;2.50;99.90;;;;;;5008707;28;20200;-51
2023/01/17 03:03:33;;;;;;;3.03;0.70;;;2.50;99.90;;;;;;5002309;28;20132;-51
2023/01/17 03:06:11;;;;;;;4.47;0.70;;;2.50;99.90;;;;;;5005091;28;20050;-52
2023/01/17 03:08:43;;;;;;;2.92;0.50;;;2.50;99.90;;;;;;5004604;28;20099;-51
2023/01/17 03:11:10;;;;;;;1.65;0.50;;;2.50;99.90;;;;;;5004244;28;20119;-52
2023/01/17 03:13:36;;;;;;;3.15;0.77;;;2.50;99.90;;;;;;5003117;28;20485;-51
2023/01/17 03:16:14;;;;;;;4.72;0.40;;;2.50;99.90;;;;;;5000539;28;20551;-52
2023/01/17 03:18:40;;;;;;;;;;;2.50;99.90;;;;;;4983736;28;20473;-51
2023/01/17 03:21:06;;;;;;;1.25;0.30;;;2.50;99.90;;;;;;4998597;28;20663;-52
2023/01/17 03:23:31;;;;;;;5.75;0.65;;;2.50;99.90;;;;;;5004553;28;20046;-51
2023/01/17 03:25:57;;;;;;;3.13;0.50;;;2.50;99.90;;;;;;5006364;28;20050;-52
2023/01/17 03:28:23;;;;;;;2.42;0.47;;;2.50;99.90;;;;;;5003254;28;20053;-53
2023/01/17 03:30:48;;;;;;;6.88;0.90;;;2.50;99.90;;;;;;5012248;28;20561;-51
2023/01/17 03:33:17;;;;;;;2.10;0.60;;;2.40;99.90;;;;;;5002537;28;20042;-54
2023/01/17 03:35:46;;;;;;;;;;;2.40;99.90;;;;;;5003475;28;20038;-50
2023/01/17 03:38:11;;;;;;;4.95;0.98;;;2.40;99.90;;;;;;5002330;28;20403;-52
2023/01/17 03:40:37;;;;;;;2.78;0.80;;;2.40;99.90;;;;;;5003623;28;20038;-52
2023/01/17 03:43:02;;;;;;;2.38;0.50;;;2.40;99.90;;;;;;5004731;28;20049;-51
2023/01/17 03:45:28;;;;;;;3.47;0.80;;;2.40;99.90;;;;;;5005144;28;20058;-53
2023/01/17 03:47:55;;;;;;;4.03;0.85;;;2.40;99.90;;;;;;5005641;28;20050;-54
2023/01/17 03:50:21;;;;;;;2.97;0.60;;;2.40;99.90;;;;;;5007974;28;20045;-52
2023/01/17 03:52:47;;;;;;;4.57;0.55;;;2.40;99.90;;;;;;5004444;28;20050;-53
2023/01/17 03:55:12;;;;;;;3.15;0.50;;;2.30;99.90;;;;;;5006134;28;20377;-50
2023/01/17 03:57:38;;;;;;;3.53;0.80;;;2.30;99.90;;;;;;5005821;28;20045;-52
2023/01/17 04:00:04;;;;;;;4.03;0.70;;;2.30;99.90;;;;;;5010560;28;20073;-52
2023/01/17 04:02:30;;;;;;;5.43;0.75;;;2.20;99.90;;;;;;5004374;28;20038;-50
2023/01/17 04:04:56;;;;;;;3.58;0.95;;;2.20;99.90;;;;;;5006297;28;20443;-53
2023/01/17 04:07:21;;;;;;;5.82;0.77;;;2.20;99.90;;;;;;5003442;28;20137;-52
2023/01/17 04:09:47;;;;;;;5.05;0.70;;;2.20;99.90;;;;;;5005565;28;20132;-53
2023/01/17 04:12:13;;;;;;;3.65;1.08;;;2.10;99.90;;;;;;5004636;28;20041;-50
2023/01/17 04:14:39;;;;;;;4.25;0.75;;;2.00;99.90;;;;;;5001258;28;20120;-52
2023/01/17 04:17:08;;;;;;;2.42;0.57;;;2.00;99.90;;;;;;5003865;28;20415;-53
2023/01/17 04:19:35;;;;;;;2.97;0.70;;;1.90;99.90;;;;;;5003950;28;20532;-50
2023/01/17 04:22:01;;;;;;;2.13;0.63;;;1.90;99.90;;;;;;5003961;28;20133;-53
2023/01/17 04:24:27;;;;;;;3.88;1.02;;;1.80;99.90;;;;;;5000151;28;20053;-54
2023/01/17 04:26:52;;;;;;;5.63;0.80;;;1.80;99.90;;;;;;5003104;28;20033;-50
2023/01/17 04:29:18;;;;;;;4.13;0.70;;;1.70;99.90;;;;;;5002515;28;20611;-52
2023/01/17 04:31:45;;;;;;;7.43;0.80;;;1.70;99.90;;;;;;5002609;28;20121;-50
2023/01/17 04:34:10;;;;;;;6.38;0.70;;;1.60;99.90;;;;;;5001368;28;20159;-53
2023/01/17 04:36:36;;;;;;;6.72;0.60;;;1.60;99.90;;;;;;4997912;28;20415;-51
2023/01/17 04:39:02;;;;;;;7.43;0.90;;;1.70;99.90;;;;;;4996616;28;20420;-50
2023/01/17 04:41:28;;;;;;;5.28;1.00;;;1.70;99.90;;;;;;5001337;28;20049;-53
2023/01/17 04:43:53;;;;;;;6.47;0.70;;;1.70;99.90;;;;;;4997788;28;20120;-51
2023/01/17 04:46:19;;;;;;;3.08;0.52;;;1.80;99.90;;;;;;4999232;28;20052;-50
2023/01/17 04:48:44;;;;;;;3.25;0.60;;;1.80;99.90;;;;;;4998333;28;20408;-51
2023/01/17 04:51:10;;;;;;;4.75;0.93;;;1.80;99.90;;;;;;4997752;28;20033;-52
2023/01/17 04:53:36;;;;;;;5.15;0.70;;;1.70;99.90;;;;;;4996949;28;20045;-52
2023/01/17 04:56:02;;;;;;;6.60;1.00;;;1.70;99.90;;;;;;5000250;28;20037;-54
2023/01/17 04:58:28;;;;;;;4.32;0.80;;;1.60;99.90;;;;;;5000764;28;20041;-53
2023/01/17 05:00:53;;;;;;;4.72;0.98;;;1.60;99.90;;;;;;5003249;28;21186;-52
2023/01/17 05:03:21;;;;;;;7.28;0.75;;;1.60;99.90;;;;;;5000751;28;20050;-54
2023/01/17 05:05:47;;;;;;;8.27;1.00;;;1.50;99.90;;;;;;5001184;28;20053;-51
2023/01/17 05:08:13;;;;;;;4.15;0.73;;;1.60;99.90;;;;;;5000457;28;20038;-52
2023/01/17 05:10:38;;;;;;;8.23;1.15;;;1.50;99.90;;;;;;4997928;28;20053;-54
2023/01/17 05:13:04;;;;;;;7.25;0.85;;;1.50;99.90;;;;;;5002208;28;20042;-54
2023/01/17 05:15:31;;;;;;;4.60;1.00;;;1.40;99.90;;;;;;5004664;28;20412;-53
2023/01/17 05:17:56;;;;;;;5.05;0.65;;;1.40;99.90;;;;;;5001872;28;20084;-53
2023/01/17 05:20:24;;;;;;;6.82;0.73;;;1.40;99.90;;;;;;4998344;28;20069;-50
2023/01/17 05:22:54;;;;;;;7.87;0.87;;;1.30;99.90;;;;;;4998639;28;20065;-50
2023/01/17 05:25:21;;;;;;;8.38;1.42;;;1.20;99.90;;;;;;4997952;28;20297;-52
2023/01/17 05:27:47;;;;;;;5.47;0.80;;;1.20;99.90;;;;;;4999260;28;20050;-50
2023/01/17 05:30:13;;;;;;;4.45;0.88;;;1.20;99.90;;;;;;5003850;28;20049;-53
2023/01/17 05:32:38;;;;;;;5.22;0.85;;;1.10;99.90;;;;;;5001161;28;20515;-51
2023/01/17 05:35:04;;;;;;;6.22;0.88;;;1.10;99.90;;;;;;4999238;28;20510;-53
2023/01/17 05:37:30;;;;;;;6.78;1.23;;;1.10;99.90;;;;;;4999336;28;20046;-50
2023/01/17 05:39:55;;;;;;;6.35;0.90;;;1.10;99.90;;;;;;4999695;28;20520;-50
2023/01/17 05:42:21;;;;;;;3.30;0.70;;;1.10;99.90;;;;;;4999607;28;20128;-54
2023/01/17 05:44:47;;;;;;;4.53;1.30;;;1.10;99.90;;;;;;5003976;28;20455;-52
2023/01/17 05:47:12;;;;;;;8.00;0.98;;;1.00;99.90;;;;;;5003172;28;20085;-50
2023/01/17 05:49:38;;;;;;;7.20;0.80;;;1.00;99.90;;;;;;5003551;28;20038;-50
2023/01/17 05:52:03;;;;;;;6.13;1.13;;;1.00;99.90;;;;;;5003919;28;20034;-51
2023/01/17 05:54:29;;;;;;;6.85;0.85;;;0.90;99.90;;;;;;5004162;28;20042;-50
2023/01/17 05:56:54;;;;;;;5.13;1.15;;;0.90;99.90;;;;;;5004918;28;20069;-54
2023/01/17 05:59:20;;;;;;;3.13;0.90;;;0.90;99.90;;;;;;5004862;28;20104;-53
2023/01/17 06:01:46;;;;;;;9.13;1.00;;;0.80;99.90;;;;;;5009493;28;20447;-51
2023/01/17 06:04:11;;;;;;;9.13;1.02;;;0.80;99.90;;;;;;5006191;28;20148;-52
2023/01/17 06:06:37;;;;;;;7.95;1.02;;;0.80;99.90;;;;;;5003744;28;20038;-51
2023/01/17 06:09:03;;;;;;;5.75;1.10;;;0.80;99.90;;;;;;5004360;28;20076;-51
2023/01/17 06:11:28;;;;;;;7.82;0.98;;;0.90;99.90;;;;;;5005832;28;20072;-52
2023/01/17 06:13:54;;;;;;;7.63;0.82;;;0.90;99.90;;;;;;5009091;28;20313;-50
2023/01/17 06:16:19;;;;;;;8.93;1.38;;;0.80;99.90;;;;;;5003889;28;20042;-50
2023/01/17 06:18:45;;;;;;;5.25;0.77;;;0.90;99.90;;;;;;5007082;28;20034;-50
2023/01/17 06:21:10;;;;;;;9.80;1.00;;;0.90;99.90;;;;;;5008403;28;20554;-51
2023/01/17 06:23:36;;;;;;;4.88;0.88;;;0.90;99.90;;;;;;5010030;28;20044;-50
2023/01/17 06:26:03;;;;;;;6.53;1.05;;;0.90;99.90;;;;;;5007563;28;20040;-50
2023/01/17 06:28:29;;;;;;;6.68;0.98;;;0.90;99.90;;;;;;5004998;28;20065;-53
2023/01/17 06:30:55;;;;;;;8.05;1.23;;;0.90;99.90;;;;;;5007032;28;20416;-50
2023/01/17 06:33:20;;;;;;;8.63;0.90;;;0.90;99.90;;;;;;5004606;28;20038;-55
2023/01/17 06:35:50;;;;;;;5.78;0.88;;;1.00;99.90;;;;;;5002336;28;20138;-52
2023/01/17 06:38:16;;;;;;;5.60;0.80;;;0.90;99.90;;;;;;5005539;28;20489;-53
2023/01/17 06:40:41;;;;;;;5.90;0.90;;;0.90;99.90;;;;;;5003459;28;20038;-54
2023/01/17 06:43:07;;;;;;;6.20;1.15;;;0.90;99.90;;;;;;5002929;28;20081;-51
2023/01/17 06:45:34;;;;;;;5.28;0.90;;;0.90;99.90;;;;;;5002541;28;20488;-51
2023/01/17 06:48:02;;;;;;;5.60;1.23;;;0.90;99.90;;;;;;5003951;28;20052;-51
2023/01/17 06:50:28;;;;;;;;;;;0.90;99.90;;;;;;5010663;28;20039;-50
2023/01/17 06:52:59;;;;;;;8.52;0.80;;;0.90;99.90;;;;;;5002161;28;20355;-50
2023/01/17 06:55:30;;;;;;;5.25;0.70;;;0.90;99.90;;;;;;5004255;28;20148;-53
2023/01/17 06:57:58;;;;;;;5.28;0.90;;;0.90;99.90;;;;;;5005026;28;20045;-49
2023/01/17 07:00:27;;;;;;;6.40;0.55;;;0.80;99.90;;;;;;5004949;28;20412;-51
2023/01/17 07:02:53;;;;;;;7.15;1.08;;;0.80;99.90;;;;;;4988825;28;20132;-54
2023/01/17 07:05:19;;;;;;;4.38;0.88;;;0.80;99.90;;;;;;5005168;28;20157;-50
2023/01/17 07:07:45;;;;;;;3.28;0.80;;;0.80;99.90;;;;;;5004178;28;20050;-50
2023/01/17 07:10:13;;;;;;;6.05;0.80;;;0.70;99.90;;;;;;5004381;28;20326;-51
2023/01/17 07:12:39;;;;;;;7.30;1.10;;;0.80;99.90;;;;;;5005364;28;20048;-50
2023/01/17 07:15:05;;;;;;;7.93;1.50;;;0.70;99.90;;;;;;5013065;28;20045;-51
2023/01/17 07:17:31;;;;;;;7.38;1.10;;;0.70;99.90;;;;;;5006134;28;20065;-55
2023/01/17 07:19:56;;;;;;;5.72;0.70;;;0.70;99.90;;;;;;5001452;28;20495;-50
2023/01/17 07:22:22;;;;;;;3.58;0.75;;;0.70;99.90;;;;;;5005324;28;20065;-50
2023/01/17 07:24:47;;;;;;;3.75;1.20;;;0.60;99.90;;;;;;5000201;28;20060;-51
2023/01/17 07:27:13;;;;;;;6.93;0.90;;;0.60;99.90;;;;;;5000658;28;20037;-50
2023/01/17 07:29:39;;;;;;;8.23;0.85;;;0.60;99.90;;;;;;5002374;28;20400;-51
2023/01/17 07:32:04;;;;;;;4.88;0.95;;;0.60;99.90;;;;;;5003626;28;20055;-49
2023/01/17 07:34:30;;;;;;;9.82;1.38;;;0.50;99.90;;;;;;5003354;28;20121;-50
2023/01/17 07:36:55;;;;;;;2.92;0.90;;;0.50;99.90;;;;;;5003951;28;20042;-51
2023/01/17 07:39:21;;;;;;;3.92;1.17;;;0.50;99.90;;;;;;5001228;28;20128;-50
2023/01/17 07:41:46;;;;;;;6.60;1.10;;;0.60;99.90;;;;;;5003327;28;20049;-50
2023/01/17 07:44:13;;;;;;;6.80;1.13;;;0.60;99.90;;;;;;5004796;28;20096;-51
2023/01/17 07:46:39;;;;;;;6.32;1.17;;;0.60;99.90;;;;;;5005083;28;20061;-51
2023/01/17 07:49:04;;;;;;;3.40;1.25;;;0.60;99.90;;;;;;5006487;28;20046;-49
2023/01/17 07:51:30;;;;;;;4.72;1.20;;;0.60;99.90;;;;;;5007267;28;20411;-52
2023/01/17 07:53:56;;;;;;;3.85;1.40;;;0.50;99.90;;;;;;5005049;28;20034;-53
2023/01/17 07:56:22;;;;;;;6.63;1.55;;;0.50;99.90;;;;;;4997468;28;20080;-51
2023/01/17 07:58:47;;;;;;;8.93;1.83;;;0.50;99.90;;;;;;5006452;28;20046;-50
2023/01/17 08:01:14;;;;;;;3.17;2.00;;;0.50;99.90;;;;;;5006996;28;20042;-51
2023/01/17 08:03:40;;;;;;;7.68;2.15;;;0.60;99.90;;;;;;5014125;28;20038;-53
2023/01/17 08:06:27;;;;;;;9.75;2.35;;;0.70;99.90;;;;;;5013794;28;20100;-50
2023/01/17 08:08:58;;;;;;;;;;;0.90;99.90;;;;;;5011257;28;20520;-50
2023/01/17 08:11:24;;;;;;;9.23;2.70;;;1.00;99.90;;;;;;5005440;28;19925;-53
2023/01/17 08:13:56;;;;;;;11.05;2.40;;;1.00;99.90;;;;;;5009181;28;20042;-50
2023/01/17 08:16:23;;;;;;;5.22;2.10;;;1.00;99.90;;;;;;5005108;28;20073;-49
2023/01/17 08:18:49;;;;;;;9.13;2.07;;;1.00;99.90;;;;;;5004326;28;20440;-50
2023/01/17 08:21:16;;;;;;;10.93;2.78;;;0.90;99.90;;;;;;5003437;28;20564;-50
2023/01/17 08:23:49;;;;;;;6.90;2.83;;;0.90;99.90;;;;;;5006877;28;20441;-51
2023/01/17 08:26:20;;;;;;;9.27;3.03;;;0.90;99.90;;;;;;5003914;28;20093;-50
2023/01/17 08:28:47;;;;;;;5.25;2.58;;;0.90;99.90;;;;;;5009136;28;20120;-51
2023/01/17 08:31:13;;;;;;;5.77;2.90;;;1.00;99.90;;;;;;5003498;28;20042;-49
2023/01/17 08:33:38;;;;;;;11.45;3.28;;;1.10;99.90;;;;;;5008298;28;20362;-52
2023/01/17 08:36:04;;;;;;;6.78;2.40;;;1.20;99.90;;;;;;5004144;28;20042;-50
2023/01/17 08:38:30;;;;;;;7.25;2.30;;;1.30;99.90;;;;;;5009299;28;20124;-50
2023/01/17 08:40:59;;;;;;;8.02;2.80;;;1.30;99.90;;;;;;4999554;28;20037;-51
2023/01/17 08:43:25;;;;;;;7.72;2.50;;;1.30;99.90;;;;;;5005285;28;20493;-51
2023/01/17 08:45:54;;;;;;;9.77;2.85;;;1.20;99.90;;;;;;5001991;28;20129;-50
2023/01/17 08:48:23;;;;;;;7.63;2.90;;;1.20;99.90;;;;;;4999758;28;20051;-50
2023/01/17 08:50:49;;;;;;;8.95;2.60;;;1.20;99.90;;;;;;5001923;28;20093;-50
2023/01/17 08:53:16;;;;;;;9.20;2.92;;;1.20;99.90;;;;;;5003392;28;20440;-54
2023/01/17 08:55:42;;;;;;;7.18;2.63;;;1.10;99.90;;;;;;5006367;28;20062;-50
2023/01/17 08:58:08;;;;;;;7.32;2.75;;;1.10;99.90;;;;;;5011174;28;20495;-53
2023/01/17 09:00:33;;;;;;;6.43;2.97;;;1.10;99.90;;;;;;5003449;28;20492;-49
2023/01/17 09:03:00;;;;;;;8.13;3.22;;;1.10;99.90;;;;;;5003718;28;21609;-53
2023/01/17 09:05:26;;;;;;;11.23;3.17;;;1.10;99.90;;;;;;5005163;28;20453;-54
2023/01/17 09:07:53;;;;;;;8.60;3.20;;;1.10;99.90;;;;;;5007487;28;20046;-51
2023/01/17 09:10:18;;;;;;;8.55;3.42;;;1.20;99.90;;;;;;5003231;28;20103;-52
2023/01/17 09:12:44;;;;;;;6.85;3.45;;;1.20;99.90;;;;;;5003605;28;20042;-54
2023/01/17 09:15:13;;;;;;;6.50;3.63;;;1.20;99.90;;;;;;5001762;28;20049;-51
2023/01/17 09:17:39;;;;;;;6.35;3.38;;;1.20;99.90;;;;;;5006354;28;20069;-53
2023/01/17 09:20:05;;;;;;;14.07;3.72;;;1.20;99.90;;;;;;4997377;28;20045;-51
2023/01/17 09:22:30;;;;;;;6.80;3.22;;;1.30;99.90;;;;;;5002901;28;20546;-52
2023/01/17 09:24:56;;;;;;;9.63;3.90;;;1.30;99.90;;;;;;4997849;28;20042;-52
2023/01/17 09:27:22;;;;;;;11.85;4.07;;;1.40;99.90;;;;;;5006547;28;20037;-54
2023/01/17 09:29:47;;;;;;;8.00;3.95;;;1.40;99.90;;;;;;5005423;28;20034;-51
2023/01/17 09:32:15;;;;;;;7.88;4.15;;;1.40;99.90;;;;;;5008623;28;20117;-51
2023/01/17 09:34:41;;;;;;;;;;;;;;;;;;5006950;28;20499;-49
2023/01/17 09:37:07;;;;;;;10.65;3.60;;;1.50;99.90;;;;;;5010258;28;19929;-51
2023/01/17 09:39:32;;;;;;;9.80;4.00;;;1.50;99.90;;;;;;5008565;28;20045;-50
2023/01/17 09:42:18;;;;;;;8.00;3.72;;;1.60;99.90;;;;;;5008632;28;20496;-51
2023/01/17 09:44:51;;;;;;;9.55;3.90;;;1.60;99.90;;;;;;5009456;28;20049;-52
2023/01/17 09:47:42;;;;;;;12.02;4.15;;;1.70;99.90;;;;;;5009417;28;20061;-50
2023/01/17 09:50:24;;;;;;;16.40;4.22;;;1.70;99.90;;;;;;5006027;28;20081;-51
2023/01/17 09:53:14;;;;;;;8.65;3.28;;;1.80;99.90;;;;;;5003788;28;20579;-51
2023/01/17 09:55:59;;;;;;;10.25;3.72;;;1.80;99.90;;;;;;4999566;28;20050;-50
2023/01/17 09:58:31;;;;;;;7.55;3.83;;;1.90;99.90;;;;;;5000813;28;20049;-50
2023/01/17 10:01:11;;;;;;;7.85;3.40;;;1.90;99.90;;;;;;5005688;28;20494;-52
2023/01/17 10:03:55;;;;;;;6.95;3.22;;;2.00;99.90;;;;;;5001082;28;20507;-50
2023/01/17 10:06:48;;;;;;;7.32;3.38;;;2.00;99.90;;;;;;5004135;28;20049;-50
2023/01/17 10:09:41;;;;;;;7.80;3.85;;;2.10;99.90;;;;;;5001272;28;20038;-49
2023/01/17 10:12:32;;;;;;;8.65;4.20;;;2.10;99.90;;;;;;4999552;28;20102;-51
2023/01/17 10:15:18;;;;;;;9.13;4.35;;;2.10;99.90;;;;;;5000194;28;20511;-49
2023/01/17 10:17:53;;;;;;;8.52;3.67;;;2.20;99.90;;;;;;5001084;28;20048;-50
2023/01/17 10:20:36;;;;;;;7.78;3.70;;;2.20;99.90;;;;;;5005486;28;20061;-52
2023/01/17 10:23:20;;;;;;;10.25;3.53;;;2.30;99.90;;;;;;5011843;28;20042;-50
2023/01/17 10:26:10;;;;;;;10.63;4.10;;;2.30;99.90;;;;;;5012322;28;20065;-50
2023/01/17 10:28:50;;;;;;;9.07;3.30;;;2.30;99.90;;;;;;5012954;28;20122;-50
2023/01/17 10:31:29;;;;;;;9.20;3.95;;;2.30;99.90;;;;;;5015979;28;20042;-54
2023/01/17 10:34:11;;;;;;;11.90;3.78;;;2.40;99.90;;;;;;5000776;28;20064;-51
2023/01/17 10:36:45;;;;;;;10.40;3.60;;;2.40;99.90;;;;;;5014778;28;20053;-51
2023/01/17 10:39:21;;;;;;;15.70;3.60;;;2.50;99.90;;;;;;5015849;28;20057;-53
2023/01/17 10:41:57;;;;;;;13.82;3.38;;;2.50;99.90;;;;;;5014215;28;20121;-50
2023/01/17 10:44:23;;;;;;;14.52;3.55;;;;;;;;;;5015966;28;20081;-53
2023/01/17 10:46:58;;;;;;;9.45;3.35;;;2.70;99.90;;;;;;5015519;28;20078;-51
2023/01/17 10:49:26;;;;;;;5.80;3.40;;;2.80;99.90;;;;;;5008919;28;20076;-49
2023/01/17 10:51:58;;;;;;;9.73;3.88;;;2.80;99.90;;;;;;5012251;28;20396;-50
2023/01/17 10:54:34;;;;;;;8.18;3.65;;;;;;;;;;5015600;28;20390;-51
2023/01/17 10:57:00;;;;;;;10.15;3.53;;;2.90;99.90;;;;;;5015411;28;20050;-52
2023/01/17 10:59:34;;;;;;;11.50;3.72;;;3.00;99.90;;;;;;5015243;28;20044;-50
2023/01/17 11:02:06;;;;;;;11.30;4.15;;;3.10;99.90;;;;;;5006528;28;20053;-51
2023/01/17 11:04:35;;;;;;;7.85;3.55;;;3.10;99.90;;;;;;5010981;28;20042;-51
2023/01/17 11:07:15;;;;;;;7.85;3.53;;;3.20;99.90;;;;;;5005350;28;20050;-51
2023/01/17 11:09:46;;;;;;;7.60;3.60;;;3.20;99.90;;;;;;5013916;28;20037;-51
2023/01/17 11:12:37;;;;;;;11.43;3.80;;;3.30;99.90;;;;;;5005593;28;21459;-50
2023/01/17 11:15:08;;;;;;;10.52;3.67;;;3.30;99.90;;;;;;5014297;28;20125;-49
2023/01/17 11:17:51;;;;;;;12.57;3.15;;;3.30;99.90;;;;;;5009270;28;20060;-50
2023/01/17 11:20:23;;;;;;;9.13;3.38;;;3.40;99.90;;;;;;5013418;28;20057;-50
2023/01/17 11:23:17;;;;;;;9.25;3.00;;;3.40;99.90;;;;;;5008413;28;20053;-51
2023/01/17 11:25:54;;;;;;;10.80;3.03;;;3.40;99.90;;;;;;5016643;28;20041;-50
2023/01/17 11:28:24;;;;;;;6.20;3.00;;;3.50;99.90;;;;;;5006438;28;20049;-49
2023/01/17 11:30:55;;;;;;;6.57;2.90;;;;;;;;;;5008158;28;20042;-50
2023/01/17 11:33:46;;;;;;;9.57;3.17;;;3.50;99.90;;;;;;5004230;28;20042;-50
2023/01/17 11:36:20;;;;;;;9.68;2.70;;;3.60;99.90;;;;;;4949105;29;20126;-50
2023/01/17 11:39:04;;;;;;;9.52;2.70;;;3.60;99.90;;;;;;4948497;28;20134;-50
2023/01/17 11:41:40;;;;;;;6.80;2.55;;;3.60;99.90;;;;;;4947797;28;20422;-49
2023/01/17 11:44:25;;;;;;;5.78;2.10;;;3.60;99.90;;;;;;4928292;29;20548;-51
2023/01/17 11:47:12;;;;;;;7.75;2.33;;;3.60;99.90;;;;;;4945467;28;20055;-49
2023/01/17 11:49:38;;;;;;;5.43;2.95;;;;;;;;;;4948435;29;20510;-51
2023/01/17 11:52:17;;;;;;;6.13;2.40;;;3.70;99.90;;;;;;4931899;29;20071;-49
2023/01/17 11:54:45;;;;;;;5.07;2.30;;;3.70;99.90;;;;;;4948287;29;20059;-49
2023/01/17 11:57:29;;;;;;;7.38;2.20;;;3.70;99.90;;;;;;4948493;29;20390;-50
2023/01/17 12:00:23;;;;;;;6.70;2.33;;;3.80;99.90;;;;;;4930349;29;20103;-50
2023/01/17 12:03:00;;;;;;;5.68;2.05;;;3.80;99.90;;;;;;4943428;29;20051;-51
2023/01/17 12:05:35;;;;;;;7.53;2.22;;;3.90;99.90;;;;;;4945017;28;20122;-52
2023/01/17 12:08:42;;;;;;;9.45;2.45;;;3.90;99.90;;;;;;4952361;29;20443;-50
2023/01/17 12:11:21;;;;;;;4.13;2.00;;;3.80;99.90;;;;;;4948412;29;20523;-50
2023/01/17 12:14:24;;;;;;;3.75;1.67;;;4.00;99.90;;;;;;4994249;28;20073;-51
2023/01/17 12:17:22;;;;;;;5.00;1.95;;;4.00;99.90;;;;;;5002786;28;20396;-51
2023/01/17 12:19:56;;;;;;;7.47;2.10;;;4.00;99.90;;;;;;5009448;28;20448;-51
2023/01/17 12:22:59;;;;;;;17.48;2.42;;;4.00;99.90;;;;;;5013383;28;20041;-51
2023/01/17 12:25:48;;;;;;;4.50;1.70;;;4.10;99.90;;;;;;5006022;28;20057;-51
2023/01/17 12:28:57;;;;;;;8.40;2.20;;;4.10;99.90;;;;;;5004213;28;20934;-52
2023/01/17 12:31:43;;;;;;;4.25;1.73;;;4.20;99.90;;;;;;5008034;28;20065;-50
2023/01/17 12:34:33;;;;;;;4.97;1.90;;;4.20;99.90;;;;;;5005219;28;20452;-50
2023/01/17 12:37:11;;;;;;;11.25;1.92;;;4.20;99.90;;;;;;5006631;28;20041;-50
2023/01/17 12:39:42;;;;;;;8.32;1.65;;;4.20;99.90;;;;;;5005971;28;20455;-54
2023/01/17 12:42:12;;;;;;;6.35;1.90;;;4.20;99.90;;;;;;5007562;28;20038;-51
2023/01/17 12:44:51;;;;;;;7.57;1.83;;;4.20;99.90;;;;;;5009020;28;20050;-54
2023/01/17 12:47:19;;;;;;;6.03;1.73;;;4.50;99.90;;;;;;5008722;28;20042;-51
2023/01/17 12:49:51;;;;;;;;;;;4.10;99.90;;;;;;5009508;28;20042;-49
2023/01/17 12:52:34;;;;;;;3.63;1.63;;;4.30;99.90;;;;;;5007717;28;19937;-50
2023/01/17 12:55:13;;;;;;;6.70;2.22;;;4.30;99.90;;;;;;5008822;28;20041;-50
2023/01/17 12:57:44;;;;;;;6.30;1.80;;;4.30;99.90;;;;;;5004288;28;20037;-53
2023/01/17 13:00:18;;;;;;;5.97;1.65;;;4.30;99.90;;;;;;5003596;28;20466;-51
2023/01/17 13:03:03;;;;;;;6.70;2.28;;;4.30;99.90;;;;;;5000713;28;20050;-50
2023/01/17 13:05:47;;;;;;;6.38;1.92;;;4.20;99.90;;;;;;5003314;28;20049;-51
2023/01/17 13:08:23;;;;;;;6.47;1.70;;;4.30;99.90;;;;;;5006330;28;20460;-51
2023/01/17 13:11:06;;;;;;;5.70;2.30;;;4.20;99.90;;;;;;5005798;28;20034;-52
2023/01/17 13:13:34;;;;;;;9.82;2.08;;;4.20;99.90;;;;;;5009034;28;20037;-50
2023/01/17 13:16:03;;;;;;;7.38;1.60;;;4.20;99.90;;;;;;5008841;28;20088;-52
2023/01/17 13:18:28;;;;;;;4.93;1.70;;;4.20;99.90;;;;;;5006970;28;20069;-51
2023/01/17 13:21:06;;;;;;;5.30;1.50;;;4.20;99.90;;;;;;5003709;28;20485;-50
2023/01/17 13:24:00;;;;;;;6.80;1.90;;;4.10;99.90;;;;;;4996891;28;20052;-53
2023/01/17 13:26:53;;;;;;;1.90;1.40;;;4.10;99.90;;;;;;5002930;28;20058;-50
2023/01/17 13:30:07;;;;;;;3.03;1.30;;;4.10;99.90;;;;;;5007005;28;20050;-51
2023/01/17 13:33:10;;;;;;;4.15;1.50;;;4.10;99.90;;;;;;4933332;29;20043;-53
2023/01/17 13:35:56;;;;;;;3.67;1.30;;;4.10;99.90;;;;;;4919776;29;20402;-52
2023/01/17 13:38:31;;;;;;;5.03;1.77;;;4.00;99.90;;;;;;4932205;29;20099;-50
2023/01/17 13:41:25;;;;;;;5.20;1.50;;;4.00;99.90;;;;;;4930901;29;20075;-50
2023/01/17 13:47:05;;;;;;;3.85;1.30;;;4.00;99.90;;;;;;4932094;29;20060;-52
2023/01/17 13:49:40;;;;;;;6.28;1.50;;;4.00;99.90;;;;;;4933229;29;20051;-50
2023/01/17 13:52:26;;;;;;;2.92;1.20;;;4.00;99.90;;;;;;4933186;29;20052;-51
2023/01/17 13:54:54;;;;;;;6.20;1.40;;;4.00;99.90;;;;;;4931349;29;20060;-53
2023/01/17 13:57:31;;;;;;;2.10;1.30;;;4.00;99.90;;;;;;4925705;29;20059;-50
2023/01/17 14:00:25;;;;;;;5.55;1.20;;;4.00;99.90;;;;;;4933412;29;20087;-51
2023/01/17 14:02:52;;;;;;;3.42;1.08;;;4.00;99.90;;;;;;4933886;29;20056;-50
2023/01/17 14:05:30;;;;;;;6.38;1.25;;;4.00;99.90;;;;;;4937069;29;20126;-50
2023/01/17 14:08:01;;;;;;;3.25;1.27;;;4.00;99.90;;;;;;4939042;28;20091;-53
2023/01/17 14:10:39;;;;;;;4.07;1.13;;;3.90;99.90;;;;;;5006304;28;20049;-50
2023/01/17 14:13:31;;;;;;;4.50;1.05;;;3.90;99.90;;;;;;5014234;28;20065;-51
2023/01/17 14:15:57;;;;;;;5.60;1.30;;;3.80;99.90;;;;;;4996872;28;20393;-53
2023/01/17 14:18:31;;;;;;;5.10;1.50;;;3.80;99.90;;;;;;5001835;28;20041;-51
2023/01/17 14:21:05;;;;;;;3.38;1.23;;;3.80;99.90;;;;;;5016707;28;20064;-51
2023/01/17 14:23:45;;;;;;;3.72;1.13;;;3.70;99.90;;;;;;5014683;28;20571;-52
2023/01/17 14:26:21;;;;;;;3.85;1.13;;;3.70;99.90;;;;;;5016328;28;20104;-50
2023/01/17 14:28:48;;;;;;;4.05;1.10;;;3.60;99.90;;;;;;5013741;28;20404;-50
2023/01/17 14:31:15;;;;;;;3.28;1.08;;;3.60;99.90;;;;;;5015689;28;20042;-50
2023/01/17 14:33:41;;;;;;;2.75;1.15;;;3.50;99.90;;;;;;5011674;28;20108;-52
2023/01/17 14:36:42;;;;;;;3.58;1.00;;;3.50;99.90;;;;;;4996352;28;20050;-50
2023/01/17 14:39:20;;;;;;;4.07;0.90;;;3.40;99.90;;;;;;4949237;29;20050;-49
2023/01/17 14:41:46;;;;;;;3.40;0.93;;;3.40;99.90;;;;;;4955378;29;20130;-50
2023/01/17 14:44:12;;;;;;;2.45;1.20;;;3.30;99.90;;;;;;4954398;28;20122;-50
2023/01/17 14:46:38;;;;;;;3.35;1.30;;;3.20;99.90;;;;;;4953663;29;20126;-51
2023/01/17 14:49:16;;;;;;;2.47;1.10;;;3.20;99.90;;;;;;4954006;28;20091;-50
2023/01/17 14:51:42;;;;;;;2.42;1.20;;;3.20;99.90;;;;;;4954228;29;20043;-49